Spitzerberg Airport LOAS

Flugplatz Daten

Name: Spitzerberg Airport

Ident: LOAS

Lat: 48,10219955

Long: 16,93530083

Platzhöhe: 600 ft

IataCode:

City: Spitzerberg

Metar

2021/10/24 00:00
CYUX 240000Z 32007KT 10SM FEW010 OVC021 M01/M02 A2980 RMK SF2SC6 LOAST STFD OBS/NXT 241200Z SLP093

Taf

Gewünschte Webcam nicht vorhanden? Dann fügen Sie eine hinzu. Sie wird dann so schnell wie möglich freigeschaltet
Url: Title: